Time;durP1;ratioP1;P1;durP2;ratioP2;P2;SDS_P1;SDS_P2;PMS_P1;PMS_P2;Temp;Humidity;BMP_temperature;BMP_pressure;BME280_temperature;BME280_humidity;BME280_pressure;Samples;Min_cycle;Max_cycle;Signal;HPM_P1;HPM_P2
2021/03/07 00:00:22;;;;;;;;;;;;;;;9.58;42.37;103128.72;5097516;28;20060;-83
2021/03/07 00:02:47;;;;;;;;;;;;;;;9.54;42.81;103124.25;5115668;28;20352;-83
2021/03/07 00:05:14;;;;;;;;;;;;;;;9.64;43.01;103117.88;5097472;28;19959;-83
2021/03/07 00:07:40;;;;;;;;;;;;;;;9.49;43.37;103115.28;5097440;28;20308;-83
2021/03/07 00:10:06;;;;;;;;;;;;;;;9.73;42.76;103112.41;5098176;28;19960;-83
2021/03/07 00:12:32;;;;;;;;;;;;;;;9.68;42.92;103111.56;5098664;28;20036;-83
2021/03/07 00:14:57;;;;;;;;;;;;;;;9.83;42.32;103109.63;5097883;28;19916;-83
2021/03/07 00:17:22;;;;;;;;;;;;;;;9.87;42.08;103106.91;5115220;28;20341;-83
2021/03/07 00:19:48;;;;;;;;;;;;;;;9.80;42.57;103104.25;5097032;28;19967;-83
2021/03/07 00:22:13;;;;;;;;;;;;;;;9.58;43.25;103116.09;5115389;28;20361;-84
2021/03/07 00:24:38;;;;;;;;;;;;;;;9.84;43.00;103106.91;5096742;28;19916;-84
2021/03/07 00:27:04;;;;;;;;;;;;;;;9.63;43.10;103101.69;5096785;28;19919;-84
2021/03/07 00:29:29;;;;;;;;;;;;;;;9.94;42.72;103105.03;5096886;28;19924;-83
2021/03/07 00:31:54;;;;;;;;;;;;;;;10.04;42.48;103103.13;5096715;28;20364;-84
2021/03/07 00:34:20;;;;;;;;;;;;;;;10.01;42.48;103098.66;5097024;28;20319;-84
2021/03/07 00:36:45;;;;;;;;;;;;;;;10.02;42.41;103099.56;5115142;28;19915;-83
2021/03/07 00:39:10;;;;;;;;;;;;;;;10.23;42.10;103098.47;5096691;28;19916;-84
2021/03/07 00:41:36;;;;;;;;;;;;;;;10.36;41.76;103094.75;5095573;28;19923;-82
2021/03/07 00:44:02;;;;;;;;;;;;;;;10.06;42.78;103104.03;5096799;28;19996;-83
2021/03/07 00:46:27;;;;;;;;;;;;;;;10.07;42.84;103095.91;5096656;28;20083;-83
2021/03/07 00:48:52;;;;;;;;;;;;;;;10.12;42.45;103095.88;5096455;28;20380;-83
2021/03/07 00:51:17;;;;;;;;;;;;;;;10.19;42.53;103084.06;5114764;28;20376;-84
2021/03/07 00:53:43;;;;;;;;;;;;;;;9.82;43.82;103091.63;5096503;28;20010;-83
2021/03/07 00:56:08;;;;;;;;;;;;;;;9.89;43.48;103082.56;5096630;28;19916;-84
2021/03/07 00:58:33;;;;;;;;;;;;;;;10.07;43.36;103086.88;5101410;28;19916;-83
2021/03/07 01:00:58;;;;;;;;;;;;;;;10.06;43.10;103088.69;5096182;28;19930;-84
2021/03/07 01:03:24;;;;;;;;;;;;;;;9.24;44.40;103099.25;5096194;28;19958;-84
2021/03/07 01:05:49;;;;;;;;;;;;;;;9.80;44.38;103080.84;5114319;28;19966;-84
2021/03/07 01:08:14;;;;;;;;;;;;;;;9.90;44.04;103087.97;5095952;28;19951;-84
2021/03/07 01:10:41;;;;;;;;;;;;;;;10.10;43.88;103070.66;5096056;28;20535;-83
2021/03/07 01:13:08;;;;;;;;;;;;;;;10.06;44.27;103074.28;5096083;28;19924;-85
2021/03/07 01:15:33;;;;;;;;;;;;;;;10.19;43.92;103075.03;5095747;28;19915;-84
2021/03/07 01:17:59;;;;;;;;;;;;;;;10.38;43.42;103079.38;5095914;28;19936;-84
2021/03/07 01:20:24;;;;;;;;;;;;;;;10.17;43.68;103071.47;5114014;28;19926;-84
2021/03/07 01:22:49;;;;;;;;;;;;;;;10.43;43.30;103071.22;5114120;28;19920;-85
2021/03/07 01:25:16;;;;;;;;;;;;;;;10.52;43.10;103067.50;5095875;28;19922;-84
2021/03/07 01:27:42;;;;;;;;;;;;;;;9.79;44.47;103068.22;5095651;28;19923;-84
2021/03/07 01:30:08;;;;;;;;;;;;;;;10.34;43.15;103063.19;5095476;28;19924;-84
2021/03/07 01:32:33;;;;;;;;;;;;;;;10.36;42.84;103064.09;5094882;28;20010;-84
2021/03/07 01:34:59;;;;;;;;;;;;;;;10.43;42.98;103063.09;5113940;28;19970;-84
2021/03/07 01:37:24;;;;;;;;;;;;;;;10.43;42.87;103041.44;5095730;28;19916;-85
2021/03/07 01:39:49;;;;;;;;;;;;;;;10.56;42.70;103047.63;5095796;28;19920;-84
2021/03/07 01:42:14;;;;;;;;;;;;;;;10.48;42.57;103045.03;5095572;28;20012;-84
2021/03/07 01:44:40;;;;;;;;;;;;;;;10.72;42.10;103037.47;5113837;28;19955;-85
2021/03/07 01:47:05;;;;;;;;;;;;;;;10.71;42.36;103033.88;5095546;28;19919;-84
2021/03/07 01:49:30;;;;;;;;;;;;;;;10.29;43.38;103022.66;5095577;28;19915;-85
2021/03/07 01:51:56;;;;;;;;;;;;;;;10.38;43.54;103022.56;5113256;28;20297;-85
2021/03/07 01:54:21;;;;;;;;;;;;;;;10.40;43.75;103025.25;5095356;28;19981;-84
2021/03/07 01:56:48;;;;;;;;;;;;;;;10.60;43.25;103020.50;5095613;28;19916;-84
2021/03/07 01:59:14;;;;;;;;;;;;;;;10.88;42.15;103017.41;5095388;28;19976;-85
2021/03/07 02:01:40;;;;;;;;;;;;;;;10.98;41.79;103005.53;5095615;28;20006;-84
2021/03/07 02:04:06;;;;;;;;;;;;;;;10.97;41.59;103009.16;5095496;28;20098;-85
2021/03/07 02:06:31;;;;;;;;;;;;;;;11.11;41.33;103013.47;5095433;28;19965;-85
2021/03/07 02:09:14;;;;;;;;;;;;;;;10.76;42.33;103007.63;5113628;28;19915;-85
2021/03/07 02:11:40;;;;;;;;;;;;;;;10.72;41.97;103010.41;5095456;28;19923;-84
2021/03/07 02:14:06;;;;;;;;;;;;;;;10.94;41.90;103001.06;5095265;28;20380;-84
2021/03/07 02:16:32;;;;;;;;;;;;;;;10.97;41.83;103003.72;5095277;28;19923;-85
2021/03/07 02:18:58;;;;;;;;;;;;;;;11.05;41.68;102998.22;5113338;28;19916;-85
2021/03/07 02:21:42;;;;;;;;;;;;;;;10.88;41.98;102993.03;5095163;28;19927;-84
2021/03/07 02:24:10;;;;;;;;;;;;;;;10.60;43.08;102984.44;5103814;28;19950;-84
2021/03/07 02:26:37;;;;;;;;;;;;;;;10.69;42.78;102984.31;5107166;28;19916;-84
2021/03/07 02:29:03;;;;;;;;;;;;;;;11.03;41.76;102975.66;5112114;28;20165;-85
2021/03/07 02:31:29;;;;;;;;;;;;;;;10.75;42.54;102980.59;5117071;28;19924;-85
2021/03/07 02:34:05;;;;;;;;;;;;;;;10.95;41.95;102964.06;5115438;28;19942;-85
2021/03/07 02:36:32;;;;;;;;;;;;;;;11.02;41.87;102962.16;5092389;28;19967;-85
2021/03/07 02:38:59;;;;;;;;;;;;;;;10.96;41.92;102965.84;5093484;28;19916;-85
2021/03/07 02:41:26;;;;;;;;;;;;;;;10.56;42.95;102956.50;5091991;28;19916;-85
2021/03/07 02:43:53;;;;;;;;;;;;;;;9.99;44.46;102958.97;5091587;28;20309;-84
2021/03/07 02:46:19;;;;;;;;;;;;;;;10.45;43.74;102955.75;5091591;28;19918;-84
2021/03/07 02:48:47;;;;;;;;;;;;;;;10.94;42.45;102951.44;5092756;28;19924;-85
2021/03/07 02:51:13;;;;;;;;;;;;;;;10.80;42.61;102943.53;5091684;28;19978;-85
2021/03/07 02:53:39;;;;;;;;;;;;;;;10.84;42.40;102944.38;5091534;28;19920;-85
2021/03/07 02:56:07;;;;;;;;;;;;;;;10.93;41.93;102945.16;5091487;28;19916;-85
2021/03/07 02:58:33;;;;;;;;;;;;;;;10.91;41.78;102940.66;5091175;28;19916;-84
2021/03/07 03:01:00;;;;;;;;;;;;;;;10.76;42.16;102937.25;5092544;28;19927;-85
2021/03/07 03:03:27;;;;;;;;;;;;;;;10.75;42.14;102942.69;5089711;28;19916;-84
2021/03/07 03:05:53;;;;;;;;;;;;;;;10.70;42.46;102939.16;5095131;28;20274;-84
2021/03/07 03:08:18;;;;;;;;;;;;;;;10.76;42.26;102942.66;5093651;28;19923;-85
2021/03/07 03:10:44;;;;;;;;;;;;;;;10.84;42.35;102939.88;5094769;28;19973;-84
2021/03/07 03:13:09;;;;;;;;;;;;;;;10.90;42.05;102936.16;5093544;28;19916;-85
2021/03/07 03:15:35;;;;;;;;;;;;;;;10.39;43.24;102932.38;5094275;28;19916;-85
2021/03/07 03:18:01;;;;;;;;;;;;;;;10.55;43.32;102934.84;5095885;28;19927;-85
2021/03/07 03:20:27;;;;;;;;;;;;;;;10.75;42.54;102937.28;5095451;28;19920;-85
2021/03/07 03:22:53;;;;;;;;;;;;;;;10.70;42.20;102933.75;5095284;28;19916;-83
2021/03/07 03:25:18;;;;;;;;;;;;;;;10.86;42.62;102934.44;5095214;28;20445;-83
2021/03/07 03:27:43;;;;;;;;;;;;;;;11.10;41.67;102935.84;5094661;28;20373;-83
2021/03/07 03:30:10;;;;;;;;;;;;;;;11.10;41.95;102928.63;5094793;28;19959;-83
2021/03/07 03:32:35;;;;;;;;;;;;;;;10.97;41.77;102929.72;5094453;28;19916;-83
2021/03/07 03:35:02;;;;;;;;;;;;;;;11.10;41.64;102934.03;5094505;28;20412;-83
2021/03/07 03:37:28;;;;;;;;;;;;;;;11.29;41.22;102931.94;5094577;28;19916;-83
2021/03/07 03:39:54;;;;;;;;;;;;;;;11.11;41.89;102926.78;5094606;28;19923;-85
2021/03/07 03:42:19;;;;;;;;;;;;;;;11.15;41.72;102928.53;5095716;28;20014;-82
2021/03/07 03:44:45;;;;;;;;;;;;;;;10.75;42.33;102923.72;5094200;28;20026;-83
2021/03/07 03:47:12;;;;;;;;;;;;;;;10.98;42.14;102921.56;5094270;28;19920;-83
2021/03/07 03:49:51;;;;;;;;;;;;;;;11.15;41.76;102925.81;5095581;28;19915;-83
2021/03/07 03:52:16;;;;;;;;;;;;;;;11.15;41.90;102923.13;5100412;28;19923;-83
2021/03/07 03:54:46;;;;;;;;;;;;;;;11.05;42.00;102916.97;5095557;28;19916;-83
2021/03/07 03:57:13;;;;;;;;;;;;;;;11.27;41.41;102914.78;5094270;28;19916;-82
2021/03/07 03:59:38;;;;;;;;;;;;;;;11.12;41.59;102912.34;5093807;28;19924;-83
2021/03/07 04:02:04;;;;;;;;;;;;;;;11.10;41.89;102919.59;5094079;28;20053;-83
2021/03/07 04:04:30;;;;;;;;;;;;;;;10.88;42.78;102914.50;5094032;28;20353;-83
2021/03/07 04:06:56;;;;;;;;;;;;;;;11.03;42.25;102915.19;5095142;28;19916;-83
2021/03/07 04:09:21;;;;;;;;;;;;;;;10.99;42.56;102917.97;5093969;28;19917;-83
2021/03/07 04:11:47;;;;;;;;;;;;;;;11.31;41.63;102911.09;5093741;28;20289;-83
2021/03/07 04:14:13;;;;;;;;;;;;;;;11.47;41.45;102916.25;5093728;28;19920;-83
2021/03/07 04:16:39;;;;;;;;;;;;;;;11.34;41.41;102910.16;5094852;28;19916;-84
2021/03/07 04:19:05;;;;;;;;;;;;;;;10.98;42.04;102909.84;5095325;28;19916;-83
2021/03/07 04:21:30;;;;;;;;;;;;;;;10.90;42.92;102909.97;5094077;28;19940;-82
2021/03/07 04:23:56;;;;;;;;;;;;;;;11.03;42.50;102915.19;5094292;28;20011;-83
2021/03/07 04:26:21;;;;;;;;;;;;;;;11.06;42.27;102915.16;5093821;28;19923;-83
2021/03/07 04:28:48;;;;;;;;;;;;;;;10.67;42.88;102909.44;5093696;28;19923;-83
2021/03/07 04:31:14;;;;;;;;;;;;;;;10.95;42.26;102910.78;5093349;28;20308;-83
2021/03/07 04:33:41;;;;;;;;;;;;;;;10.76;43.31;102909.28;5094832;28;19916;-83
2021/03/07 04:36:06;;;;;;;;;;;;;;;11.02;42.52;102906.19;5093008;28;19912;-83
2021/03/07 04:38:33;;;;;;;;;;;;;;;10.81;42.71;102911.00;5094621;28;20297;-83
2021/03/07 04:40:58;;;;;;;;;;;;;;;11.10;42.36;102915.06;5093397;28;20061;-83
2021/03/07 04:43:24;;;;;;;;;;;;;;;10.84;42.94;102910.09;5093531;28;19959;-83
2021/03/07 04:45:49;;;;;;;;;;;;;;;11.10;42.01;102906.94;5094665;28;20553;-83
2021/03/07 04:48:15;;;;;;;;;;;;;;;11.14;42.21;102905.06;5093293;28;19923;-84
2021/03/07 04:50:40;;;;;;;;;;;;;;;10.40;44.38;102906.19;5094106;28;20010;-83
2021/03/07 04:53:05;;;;;;;;;;;;;;;10.94;42.99;102903.56;5093097;28;19962;-83
2021/03/07 04:55:30;;;;;;;;;;;;;;;10.77;42.57;102902.97;5093065;28;19916;-82
2021/03/07 04:57:56;;;;;;;;;;;;;;;10.85;42.27;102901.03;5094245;28;20327;-83
2021/03/07 05:00:21;;;;;;;;;;;;;;;11.00;41.74;102897.19;5092757;28;19932;-84
2021/03/07 05:02:46;;;;;;;;;;;;;;;10.08;43.86;102902.06;5092952;28;19923;-83
2021/03/07 05:05:12;;;;;;;;;;;;;;;10.93;42.38;102904.53;5093353;28;20388;-83
2021/03/07 05:07:37;;;;;;;;;;;;;;;11.16;42.04;102892.41;5093875;28;19916;-83
2021/03/07 05:10:04;;;;;;;;;;;;;;;10.70;42.92;102890.44;5093899;28;19923;-84
2021/03/07 05:12:29;;;;;;;;;;;;;;;10.88;42.30;102895.56;5094352;28;19920;-83
2021/03/07 05:14:54;;;;;;;;;;;;;;;10.67;42.83;102894.06;5098070;28;19924;-83
2021/03/07 05:17:19;;;;;;;;;;;;;;;10.49;43.37;102889.81;5108917;28;19927;-83
2021/03/07 05:19:44;;;;;;;;;;;;;;;10.72;42.87;102888.59;5113771;28;19927;-84
2021/03/07 05:22:10;;;;;;;;;;;;;;;11.19;41.55;102886.94;5115551;28;19912;-83
2021/03/07 05:24:36;;;;;;;;;;;;;;;10.35;42.81;102891.84;5119181;28;19926;-83
2021/03/07 05:27:05;;;;;;;;;;;;;;;10.24;40.35;102889.25;5120978;28;19916;-82
2021/03/07 05:29:34;;;;;;;;;;;;;;;9.46;41.13;102883.84;5096093;28;19993;-83
2021/03/07 05:32:00;;;;;;;;;;;;;;;10.88;36.05;102873.88;5095748;28;19973;-83
2021/03/07 05:34:25;;;;;;;;;;;;;;;11.54;35.38;102866.41;5113963;28;19916;-83
2021/03/07 05:36:50;;;;;;;;;;;;;;;11.80;34.57;102870.44;5094959;28;19920;-83
2021/03/07 05:39:16;;;;;;;;;;;;;;;10.43;38.48;102873.69;5095268;28;20011;-84
2021/03/07 05:41:41;;;;;;;;;;;;;;;11.01;37.83;102871.88;5095709;28;19916;-84
2021/03/07 05:44:08;;;;;;;;;;;;;;;11.64;36.74;102865.31;5092126;28;19919;-84
2021/03/07 05:46:33;;;;;;;;;;;;;;;11.92;36.37;102861.16;5092358;28;20281;-84
2021/03/07 05:48:58;;;;;;;;;;;;;;;11.86;36.26;102862.16;5092237;28;20333;-84
2021/03/07 05:51:23;;;;;;;;;;;;;;;11.94;35.95;102856.63;5092121;28;19916;-84
2021/03/07 05:53:50;;;;;;;;;;;;;;;11.61;37.19;102864.47;5098926;28;20018;-85
2021/03/07 05:56:16;;;;;;;;;;;;;;;11.83;36.84;102856.81;5095471;28;19915;-84
2021/03/07 05:58:41;;;;;;;;;;;;;;;11.72;36.98;102853.44;5095632;28;19939;-84
2021/03/07 06:01:06;;;;;;;;;;;;;;;10.86;39.73;102858.63;5113736;28;20452;-84
2021/03/07 06:03:31;;;;;;;;;;;;;;;10.73;40.33;102863.31;5095467;28;19928;-86
2021/03/07 06:05:56;;;;;;;;;;;;;;;11.07;39.96;102865.47;5095613;28;20006;-85
2021/03/07 06:08:22;;;;;;;;;;;;;;;10.82;40.38;102855.97;5095693;28;20014;-85
2021/03/07 06:10:47;;;;;;;;;;;;;;;11.03;39.98;102861.91;5095801;28;19920;-84
2021/03/07 06:13:13;;;;;;;;;;;;;;;10.95;39.57;102856.63;5095557;28;19954;-85
2021/03/07 06:15:45;;;;;;;;;;;;;;;11.29;38.98;102853.34;5113479;28;19916;-85
2021/03/07 06:18:18;;;;;;;;;;;;;;;11.43;38.24;102844.94;5095372;28;20006;-85
2021/03/07 06:20:44;;;;;;;;;;;;;;;11.50;38.77;102849.34;5094865;28;19969;-85
2021/03/07 06:23:09;;;;;;;;;;;;;;;11.83;37.49;102836.00;5112901;28;19919;-84
2021/03/07 06:25:45;;;;;;;;;;;;;;;11.80;37.59;102840.59;5095351;28;19937;-84
2021/03/07 06:28:20;;;;;;;;;;;;;;;11.99;36.96;102842.03;5113595;28;19927;-83
2021/03/07 06:30:45;;;;;;;;;;;;;;;12.01;37.04;102839.28;5094876;28;19930;-84
2021/03/07 06:33:10;;;;;;;;;;;;;;;11.76;37.54;102837.06;5095270;28;20010;-84
2021/03/07 06:35:35;;;;;;;;;;;;;;;11.38;38.86;102837.81;5095071;28;19916;-85
2021/03/07 06:38:05;;;;;;;;;;;;;;;11.12;37.91;102836.50;5079532;28;19920;-85
2021/03/07 06:40:30;;;;;;;;;;;;;;;10.98;40.00;102840.31;5099209;28;19920;-84
2021/03/07 06:42:57;;;;;;;;;;;;;;;11.13;40.38;102839.16;5117896;28;19922;-84
2021/03/07 06:45:22;;;;;;;;;;;;;;;11.34;38.71;102840.59;5107670;28;19938;-83
2021/03/07 06:47:55;;;;;;;;;;;;;;;11.46;38.05;102822.31;5117704;28;20285;-84
2021/03/07 06:50:20;;;;;;;;;;;;;;;11.49;37.79;102824.97;5098830;28;19938;-84
2021/03/07 06:52:49;;;;;;;;;;;;;;;11.85;37.23;102827.81;5098784;28;20369;-84
2021/03/07 06:55:15;;;;;;;;;;;;;;;11.60;37.59;102831.06;5098727;28;19923;-84
2021/03/07 06:57:41;;;;;;;;;;;;;;;11.60;38.07;102832.88;5098837;28;19920;-84
2021/03/07 07:00:06;;;;;;;;;;;;;;;12.09;37.08;102830.97;5099566;28;19976;-84
2021/03/07 07:02:32;;;;;;;;;;;;;;;11.83;37.74;102836.00;5098876;28;19939;-84
2021/03/07 07:04:57;;;;;;;;;;;;;;;11.87;38.04;102836.84;5098545;28;19916;-84
2021/03/07 07:07:23;;;;;;;;;;;;;;;12.15;37.12;102831.75;5098442;28;19915;-84
2021/03/07 07:09:56;;;;;;;;;;;;;;;11.64;38.14;102835.50;5116806;28;19919;-84
2021/03/07 07:12:26;;;;;;;;;;;;;;;11.87;37.53;102836.84;5098308;28;19923;-84
2021/03/07 07:15:04;;;;;;;;;;;;;;;11.97;37.55;102830.34;5116424;28;20369;-83
2021/03/07 07:17:29;;;;;;;;;;;;;;;12.07;37.45;102831.00;5116569;28;19998;-83
2021/03/07 07:19:55;;;;;;;;;;;;;;;12.43;36.86;102836.53;5098251;28;20451;-84
2021/03/07 07:22:20;;;;;;;;;;;;;;;12.48;36.43;102828.28;5098330;28;19920;-83
2021/03/07 07:24:46;;;;;;;;;;;;;;;12.41;36.75;102827.56;5100634;28;20427;-84
2021/03/07 07:27:11;;;;;;;;;;;;;;;12.33;36.70;102819.56;5081484;28;19919;-83
2021/03/07 07:29:37;;;;;;;;;;;;;;;12.68;36.18;102819.66;5097930;28;19931;-83
2021/03/07 07:32:06;;;;;;;;;;;;;;;12.66;36.32;102819.69;5097644;28;20369;-84
2021/03/07 07:34:50;;;;;;;;;;;;;;;12.74;36.19;102823.13;5097774;28;19915;-84
2021/03/07 07:37:18;;;;;;;;;;;;;;;12.68;35.67;102819.66;5116077;28;19915;-84
2021/03/07 07:39:44;;;;;;;;;;;;;;;12.83;35.66;102827.44;5097583;28;19920;-84
2021/03/07 07:42:20;;;;;;;;;;;;;;;12.82;34.93;102824.72;5097908;28;19916;-84
2021/03/07 07:44:46;;;;;;;;;;;;;;;12.87;35.22;102825.53;5115555;28;20441;-85
2021/03/07 07:47:11;;;;;;;;;;;;;;;12.85;35.40;102816.53;5080066;28;19927;-84
2021/03/07 07:49:41;;;;;;;;;;;;;;;12.96;35.12;102824.41;5096888;28;19923;-85
2021/03/07 07:52:21;;;;;;;;;;;;;;;12.93;34.32;102828.97;5115839;28;19919;-84
2021/03/07 07:54:50;;;;;;;;;;;;;;;13.38;32.93;102824.22;5115679;28;19984;-84
2021/03/07 07:57:31;;;;;;;;;;;;;;;13.49;32.98;102818.47;5097589;28;20295;-84
2021/03/07 07:59:56;;;;;;;;;;;;;;;13.24;33.79;102816.38;5098123;28;19968;-85
2021/03/07 08:02:40;;;;;;;;;;;;;;;13.46;33.88;102814.00;5098628;28;20010;-85
2021/03/07 08:05:26;;;;;;;;;;;;;;;13.74;33.27;102813.19;5099101;28;19969;-84
2021/03/07 08:07:59;;;;;;;;;;;;;;;12.65;34.48;102807.06;5092628;28;20467;-85
2021/03/07 08:10:36;;;;;;;;;;;;;;;13.00;33.88;102807.97;5094073;28;19916;-84
2021/03/07 08:13:01;;;;;;;;;;;;;;;12.68;34.57;102808.78;5085385;28;19920;-83
2021/03/07 08:15:26;;;;;;;;;;;;;;;13.44;33.82;102814.03;5106951;28;20276;-83
2021/03/07 08:17:55;;;;;;;;;;;;;;;13.47;33.71;102811.25;5082872;28;19943;-84
2021/03/07 08:20:41;;;;;;;;;;;;;;;13.27;34.01;102819.94;5080182;28;19920;-83
2021/03/07 08:23:14;;;;;;;;;;;;;;;13.09;33.94;102813.16;5077744;28;19920;-86
2021/03/07 08:25:45;;;;;;;;;;;;;;;12.82;33.33;102811.13;5062857;28;20014;-84
2021/03/07 08:28:29;;;;;;;;;;;;;;;13.41;33.41;102805.97;5062481;28;19921;-84
2021/03/07 08:31:01;;;;;;;;;;;;;;;13.05;33.25;102819.59;5045688;28;20367;-85
2021/03/07 08:33:34;;;;;;;;;;;;;;;13.51;32.68;102811.16;5053394;28;19924;-86
2021/03/07 08:36:09;;;;;;;;;;;;;;;13.33;33.79;102810.72;5057539;28;19916;-84
2021/03/07 08:38:34;;;;;;;;;;;;;;;12.31;36.12;102813.28;5066984;28;19944;-84
2021/03/07 08:40:59;;;;;;;;;;;;;;;12.56;35.92;102802.75;5060022;28;20374;-83
2021/03/07 08:43:24;;;;;;;;;;;;;;;12.68;36.02;102803.34;5054280;28;19917;-83
2021/03/07 08:46:08;;;;;;;;;;;;;;;11.72;38.51;102810.06;5054002;28;19932;-83
2021/03/07 08:48:35;;;;;;;;;;;;;;;12.70;36.85;102804.22;5063104;28;20255;-83
2021/03/07 08:51:00;;;;;;;;;;;;;;;12.72;35.22;102802.34;5053983;28;19920;-83
2021/03/07 08:53:27;;;;;;;;;;;;;;;12.53;34.50;102807.34;5053140;28;20293;-85
2021/03/07 08:55:52;;;;;;;;;;;;;;;11.88;36.37;102806.06;5052844;28;19978;-84
2021/03/07 08:58:21;;;;;;;;;;;;;;;11.53;36.60;102805.00;5053870;28;20362;-83
2021/03/07 09:00:51;;;;;;;;;;;;;;;12.16;35.31;102805.50;5052717;28;19925;-83
2021/03/07 09:03:17;;;;;;;;;;;;;;;12.19;34.80;102798.16;5062186;28;19917;-83
2021/03/07 09:05:43;;;;;;;;;;;;;;;12.09;34.84;102799.31;5048864;28;19929;-82
2021/03/07 09:08:08;;;;;;;;;;;;;;;12.54;34.25;102795.56;5059811;28;20034;-83
2021/03/07 09:10:35;;;;;;;;;;;;;;;12.88;33.47;102787.44;5055991;28;19973;-83
2021/03/07 09:13:06;;;;;;;;;;;;;;;13.54;32.40;102789.31;5071578;28;19972;-83
2021/03/07 09:15:32;;;;;;;;;;;;;;;13.81;32.35;102785.78;5065280;28;20360;-84
2021/03/07 09:17:58;;;;;;;;;;;;;;;13.62;31.72;102790.00;5072159;28;19917;-83
2021/03/07 09:20:38;;;;;;;;;;;;;;;13.08;32.56;102791.47;5078484;28;20038;-86
2021/03/07 09:23:03;;;;;;;;;;;;;;;13.59;31.41;102790.09;5094156;28;20388;-84
2021/03/07 09:25:28;;;;;;;;;;;;;;;13.72;31.07;102786.03;5092791;28;19916;-87
2021/03/07 09:27:53;;;;;;;;;;;;;;;13.55;30.82;102785.66;5094174;28;19916;-85
2021/03/07 09:30:19;;;;;;;;;;;;;;;13.56;30.25;102798.34;5093445;28;19924;-83
2021/03/07 09:32:48;;;;;;;;;;;;;;;13.90;30.56;102797.31;5093372;28;19912;-83
2021/03/07 09:35:20;;;;;;;;;;;;;;;13.47;30.18;102785.88;5093174;28;19916;-83
2021/03/07 09:37:59;;;;;;;;;;;;;;;12.51;31.29;102784.78;5091706;28;19920;-83
2021/03/07 09:40:25;;;;;;;;;;;;;;;13.75;29.49;102782.34;5093389;28;19977;-84
2021/03/07 09:42:54;;;;;;;;;;;;;;;14.12;28.38;102778.50;5092492;28;20377;-84
2021/03/07 09:45:20;;;;;;;;;;;;;;;14.25;28.75;102789.88;5092571;28;19919;-84
2021/03/07 09:47:45;;;;;;;;;;;;;;;14.23;29.04;102783.59;5092035;28;20435;-84
2021/03/07 09:50:10;;;;;;;;;;;;;;;14.55;28.70;102785.25;5093003;28;19920;-84
2021/03/07 09:52:36;;;;;;;;;;;;;;;14.45;29.71;102776.53;5092998;28;19958;-84
2021/03/07 09:55:02;;;;;;;;;;;;;;;14.42;28.78;102776.63;5091785;28;19916;-84
2021/03/07 09:57:27;;;;;;;;;;;;;;;13.54;29.42;102783.88;5091688;28;19920;-84
2021/03/07 09:59:53;;;;;;;;;;;;;;;13.96;29.22;102786.25;5092641;28;19924;-84
2021/03/07 10:02:18;;;;;;;;;;;;;;;13.54;29.12;102783.88;5091644;28;19920;-85
2021/03/07 10:04:45;;;;;;;;;;;;;;;13.72;29.50;102777.88;5091817;28;19924;-84
2021/03/07 10:07:12;;;;;;;;;;;;;;;13.72;29.03;102777.88;5088855;28;19966;-83
2021/03/07 10:09:56;;;;;;;;;;;;;;;13.51;29.09;102773.97;5073809;28;19927;-84
2021/03/07 10:12:21;;;;;;;;;;;;;;;14.32;28.43;102783.31;5074842;28;19927;-84
2021/03/07 10:14:52;;;;;;;;;;;;;;;13.79;29.50;102782.19;5081810;28;19915;-83
2021/03/07 10:17:17;;;;;;;;;;;;;;;14.73;27.95;102781.06;5080991;28;19955;-83
2021/03/07 10:19:43;;;;;;;;;;;;;;;14.43;27.63;102778.41;5097994;28;19963;-84
2021/03/07 10:22:08;;;;;;;;;;;;;;;14.40;28.19;102773.03;5081137;28;19916;-83
2021/03/07 10:24:34;;;;;;;;;;;;;;;14.84;27.52;102773.44;5081052;28;19939;-84
2021/03/07 10:27:00;;;;;;;;;;;;;;;14.01;29.02;102767.97;5080822;28;19916;-83
2021/03/07 10:29:30;;;;;;;;;;;;;;;14.27;29.18;102771.69;5080613;28;19924;-82
2021/03/07 10:32:00;;;;;;;;;;;;;;;13.75;30.00;102772.38;5081089;28;19917;-83
2021/03/07 10:34:31;;;;;;;;;;;;;;;14.89;28.18;102762.38;5080753;28;19971;-83
2021/03/07 10:36:56;;;;;;;;;;;;;;;14.71;28.93;102763.88;5098824;28;20019;-83
2021/03/07 10:39:21;;;;;;;;;;;;;;;14.53;28.83;102771.69;5080711;28;20007;-83
2021/03/07 10:41:47;;;;;;;;;;;;;;;14.31;29.51;102759.72;5097452;28;19916;-83
2021/03/07 10:44:12;;;;;;;;;;;;;;;14.20;29.45;102772.81;5098881;28;20007;-83
2021/03/07 10:46:39;;;;;;;;;;;;;;;14.73;29.18;102764.72;5080217;28;19951;-82
2021/03/07 10:49:08;;;;;;;;;;;;;;;13.55;31.50;102759.34;5080662;28;20287;-83
2021/03/07 10:51:34;;;;;;;;;;;;;;;14.91;29.53;102756.84;5094026;28;19916;-83
2021/03/07 10:53:59;;;;;;;;;;;;;;;14.96;29.38;102755.75;5080633;28;19916;-83
2021/03/07 10:56:31;;;;;;;;;;;;;;;13.69;30.78;102750.78;5098705;28;19916;-83
2021/03/07 10:58:57;;;;;;;;;;;;;;;13.96;30.67;102759.03;5098373;28;19927;-83
2021/03/07 11:01:22;;;;;;;;;;;;;;;15.01;28.73;102752.88;5080768;28;19920;-82
2021/03/07 11:03:48;;;;;;;;;;;;;;;14.13;29.74;102755.78;5081033;28;20007;-84
2021/03/07 11:06:13;;;;;;;;;;;;;;;12.17;32.96;102763.88;5098681;28;19916;-82
2021/03/07 11:08:39;;;;;;;;;;;;;;;13.88;31.01;102759.28;5082070;28;19916;-83
2021/03/07 11:11:04;;;;;;;;;;;;;;;13.56;31.53;102755.72;5090461;28;19923;-82
2021/03/07 11:13:30;;;;;;;;;;;;;;;14.78;29.54;102757.28;5106244;28;19923;-83
2021/03/07 11:15:55;;;;;;;;;;;;;;;14.66;29.53;102755.88;5089212;28;19942;-82
2021/03/07 11:18:20;;;;;;;;;;;;;;;15.20;29.25;102745.81;5096377;28;20397;-82
2021/03/07 11:20:46;;;;;;;;;;;;;;;14.28;29.62;102751.66;5097563;28;19966;-81
2021/03/07 11:23:11;;;;;;;;;;;;;;;14.82;29.75;102745.31;5084463;28;19936;-82
2021/03/07 11:25:37;;;;;;;;;;;;;;;14.26;30.13;102748.13;5095851;28;20308;-83
2021/03/07 11:28:02;;;;;;;;;;;;;;;14.17;31.03;102749.28;5077619;28;19923;-84
2021/03/07 11:30:27;;;;;;;;;;;;;;;14.93;29.51;102753.16;5077716;28;19924;-84
2021/03/07 11:32:53;;;;;;;;;;;;;;;14.33;30.12;102755.16;5077246;28;19957;-83
2021/03/07 11:35:18;;;;;;;;;;;;;;;15.32;28.66;102744.44;5093805;28;20430;-84
2021/03/07 11:37:43;;;;;;;;;;;;;;;14.21;30.01;102752.84;5075664;28;20292;-84
2021/03/07 11:40:09;;;;;;;;;;;;;;;14.53;29.79;102752.63;5094339;28;19923;-81
2021/03/07 11:42:34;;;;;;;;;;;;;;;14.18;30.27;102753.81;5077221;28;19916;-82
2021/03/07 11:44:59;;;;;;;;;;;;;;;14.17;30.47;102747.44;5077133;28;19969;-85
2021/03/07 11:47:24;;;;;;;;;;;;;;;13.94;30.43;102745.47;5077064;28;20300;-82
2021/03/07 11:49:50;;;;;;;;;;;;;;;13.52;31.35;102742.25;5095087;28;19916;-82
2021/03/07 11:52:15;;;;;;;;;;;;;;;13.96;31.15;102731.81;5094863;28;19992;-83
2021/03/07 11:54:40;;;;;;;;;;;;;;;13.76;30.70;102727.88;5077169;28;19942;-83
2021/03/07 11:57:06;;;;;;;;;;;;;;;13.37;31.35;102730.88;5077325;28;20288;-83
2021/03/07 11:59:33;;;;;;;;;;;;;;;14.10;29.88;102724.13;5078072;28;19986;-83
2021/03/07 12:01:58;;;;;;;;;;;;;;;15.47;28.44;102717.53;5077403;28;20370;-83
2021/03/07 12:04:23;;;;;;;;;;;;;;;14.42;28.85;102713.09;5077251;28;19916;-82
2021/03/07 12:06:49;;;;;;;;;;;;;;;14.53;29.41;102725.41;5095161;28;19916;-82
2021/03/07 12:09:14;;;;;;;;;;;;;;;13.02;31.16;102724.59;5096266;28;20379;-85
2021/03/07 12:11:39;;;;;;;;;;;;;;;12.87;32.01;102715.03;5096128;28;20512;-84
2021/03/07 12:14:04;;;;;;;;;;;;;;;13.92;30.23;102720.16;5097255;28;20391;-86
2021/03/07 12:16:30;;;;;;;;;;;;;;;13.39;30.49;102714.50;5096199;28;19916;-80
2021/03/07 12:18:55;;;;;;;;;;;;;;;13.25;30.56;102712.16;5097849;28;19916;-83
2021/03/07 12:21:20;;;;;;;;;;;;;;;12.61;31.62;102709.44;5098546;28;20392;-85
2021/03/07 12:23:46;;;;;;;;;;;;;;;12.32;32.63;102706.53;5097711;28;20361;-90
2021/03/07 12:26:11;;;;;;;;;;;;;;;12.62;31.86;102695.81;5097856;28;20284;-85
2021/03/07 12:28:36;;;;;;;;;;;;;;;12.85;31.10;102695.19;5096074;28;20381;-83
2021/03/07 12:31:03;;;;;;;;;;;;;;;12.66;31.37;102691.16;5096647;28;19916;-85
2021/03/07 12:33:28;;;;;;;;;;;;;;;13.55;30.62;102682.31;5094543;28;19961;-84
2021/03/07 12:35:54;;;;;;;;;;;;;;;13.32;30.74;102683.00;5094878;28;19920;-86